Latest Coastal Weather Observations for Mornington Island Airport

IDQ60701

Issued at 3:55 pm EST Friday 19 September 2014 (issued every 10 minutes, with the page automatically refreshed every 10 minutes)

About coastal observations | Map of coastal stations | Coastal observations for QLD | Marine services | Other Formats
Station Details ID: 029182 Name: MORNINGTON ISLAND AIRPORT Lat: -16.66 Lon: 139.17 Height: 9.0 m
Data from the previous 72 hours. | See also: Recent months at Mornington Island Airport
Date/Time
EST
Temp

°C
Wind Pressure Rain
since 9am
mm
Weather Cloud Vis
km
Sea
Height
m
Swell
Dir
 
Speed
knots
Gust
knots
hPa Trend Height
m
Period
s
Dir
19/03:30pm 32.1 SE 11 16 1013.6 - 0.0 - - - - - - -
19/03:00pm 32.0 SE 10 15 1013.7 - 0.0 - - - - - - -
19/02:30pm 32.8 ESE 11 17 1014.0 - 0.0 - - - - - - -
19/02:00pm 32.2 ESE 13 19 1014.4 - 0.0 - - - - - - -
19/01:30pm 32.2 SE 12 18 1014.9 - 0.0 - - - - - - -
19/01:00pm 32.2 SE 13 19 1015.5 - 0.0 - - - - - - -
19/12:30pm 32.2 SE 13 20 1016.0 - 0.0 - - - - - - -
19/12:00pm 31.0 SE 13 19 1016.4 - 0.0 - - - - - - -
19/11:30am 29.8 SE 13 21 1016.9 - 0.0 - - - - - - -
19/11:00am 29.4 SE 13 21 1017.4 - 0.0 - - - - - - -
19/10:30am 29.1 SE 11 19 1017.8 - 0.0 - - - - - - -
19/10:00am 29.2 SE 11 16 1017.8 - 0.0 - - - - - - -
19/09:30am 27.9 SE 11 18 1017.9 - 0.0 - - - - - - -
19/09:00am 27.2 ESE 14 21 1017.9 - 0.0 - - - - - - -
19/08:30am 26.8 SE 14 20 1017.8 - 0.0 - - - - - - -
19/08:00am 26.2 ESE 13 20 1017.5 - 0.0 - - - - - - -
19/07:30am 25.2 SE 10 15 1016.8 - 0.0 - - - - - - -
19/07:00am 23.6 SSE 7 11 1016.1 - 0.0 - - - - - - -
19/06:30am 22.3 SSE 7 12 1015.5 - 0.0 - - - - - - -
19/06:00am 21.5 S 5 9 1015.1 - 0.0 - - - - - - -
19/05:30am 21.1 SSE 4 7 1014.9 - 0.0 - - - - - - -
19/05:00am 21.2 SSE 5 8 1014.8 - 0.0 - - - - - - -
19/04:30am 21.2 S 3 5 1014.6 - 0.0 - - - - - - -
19/04:00am 22.1 SSW 4 6 1014.5 - 0.0 - - - - - - -
19/03:30am 22.5 SSW 4 6 1014.5 - 0.0 - - - - - - -
19/03:00am 23.2 SW 5 7 1014.6 - 0.0 - - - - - - -
19/02:30am 23.4 SW 5 8 1014.8 - 0.0 - - - - - - -
19/02:00am 23.3 SSW 4 6 1015.0 - 0.0 - - - - - - -
19/01:30am 24.0 WSW 5 7 1015.1 - 0.0 - - - - - - -
19/01:00am 24.2 WSW 6 8 1015.3 - 0.0 - - - - - - -
19/12:30am 24.4 W 7 8 1015.6 - 0.0 - - - - - - -
19/12:00am 24.2 W 6 8 1015.8 - 0.0 - - - - - - -
 
Date/Time
EST
Temp

°C
Wind Pressure Rain
since 9am
mm
Weather Cloud Vis
km
Sea
Height
m
Swell
Dir
 
Speed
knots
Gust
knots
hPa Trend Height
m
Period
s
Dir
18/11:30pm 23.2 W 5 6 1015.9 - 0.0 - - - - - - -
18/11:00pm 22.9 W 4 5 1015.9 - 0.0 - - - - - - -
18/10:30pm 23.7 W 5 6 1016.0 - 0.0 - - - - - - -
18/10:00pm 23.6 NW 5 6 1015.9 - 0.0 - - - - - - -
18/09:30pm 23.3 NNW 4 5 1016.0 - 0.0 - - - - - - -
18/09:00pm 23.9 NNW 5 6 1015.8 - 0.0 - - - - - - -
18/08:30pm 24.1 NNW 6 7 1015.4 - 0.0 - - - - - - -
18/08:00pm 24.5 NNW 5 7 1015.2 - 0.0 - - - - - - -
18/07:30pm 24.8 NNW 5 7 1014.8 - 0.0 - - - - - - -
18/07:00pm 25.3 N 5 7 1014.5 - 0.0 - - - - - - -
18/06:30pm 26.6 N 8 9 1014.4 - 0.0 - - - - - - -
18/06:00pm 28.2 N 8 10 1014.3 - 0.0 - - - - - - -
18/05:30pm 28.3 NW 4 6 1014.3 - 0.0 - - - - - - -
18/05:00pm 28.2 WSW 6 8 1014.6 - 0.0 - - - - - - -
18/04:30pm 28.8 SW 7 11 1014.7 - 0.0 - - - - - - -
18/04:00pm 28.6 SSE 8 13 1014.6 - 0.0 - - - - - - -
18/03:30pm 30.3 SSW 5 7 1014.5 - 0.0 - - - - - - -
18/03:00pm 29.5 S 6 9 1014.6 - 0.0 - - - - - - -
18/02:30pm 30.0 W 7 11 1014.9 - 0.0 - - - - - - -
18/02:00pm 29.9 W 9 11 1015.1 - 0.0 - - - - - - -
18/01:30pm 29.2 WSW 6 9 1015.6 - 0.0 - - - - - - -
18/01:00pm 30.8 ESE 9 14 1015.9 - 0.0 - - - - - - -
18/12:30pm 29.5 SE 10 14 1016.4 - 0.0 - - - - - - -
18/12:00pm 29.5 ESE 12 16 1016.9 - 0.0 - - - - - - -
18/11:30am 29.5 ESE 12 19 1017.3 - 0.0 - - - - - - -
18/11:00am 28.3 SE 12 18 1017.5 - 0.0 - - - - - - -
18/10:30am 28.2 SE 13 20 1017.6 - 0.0 - - - - - - -
18/10:00am 28.1 SE 15 22 1017.7 - 0.0 - - - - - - -
18/09:30am 28.1 SE 12 20 1017.8 - 0.0 - - - - - - -
18/09:00am 27.5 SE 10 16 1017.6 - 0.0 - - - - - - -
18/08:30am 26.6 SE 11 17 1017.3 - 0.0 - - - - - - -
18/08:00am 25.9 SE 8 14 1017.2 - 0.0 - - - - - - -
18/07:30am 23.9 SSE 7 10 1016.8 - 0.0 - - - - - - -
18/07:00am 22.4 SSE 6 12 1016.4 - 0.0 - - - - - - -
18/06:30am 21.8 SSE 6 8 1016.2 - 0.0 - - - - - - -
18/06:00am 21.8 S 7 11 1015.9 - 0.0 - - - - - - -
18/05:30am 22.0 S 5 8 1015.6 - 0.0 - - - - - - -
18/05:00am 22.3 S 4 6 1015.3 - 0.0 - - - - - - -
18/04:30am 22.9 SSW 4 6 1014.8 - 0.0 - - - - - - -
18/04:00am 23.2 SW 5 8 1014.6 - 0.0 - - - - - - -
18/03:30am 23.5 SW 6 10 1014.6 - 0.0 - - - - - - -
18/03:00am 23.7 SW 5 8 1014.6 - 0.0 - - - - - - -
18/02:30am 24.1 SW 6 9 1014.8 - 0.0 - - - - - - -
18/02:00am 24.1 WSW 6 8 1015.0 - 0.0 - - - - - - -
18/01:30am 24.0 WSW 6 8 1015.4 - 0.0 - - - - - - -
18/01:00am 24.1 W 7 9 1015.5 - 0.0 - - - - - - -
18/12:30am 24.1 W 7 9 1015.6 - 0.0 - - - - - - -
18/12:00am 24.2 W 7 9 1015.6 - 0.0 - - - - - - -
 
Date/Time
EST
Temp

°C
Wind Pressure Rain
since 9am
mm
Weather Cloud Vis
km
Sea
Height
m
Swell
Dir
 
Speed
knots
Gust
knots
hPa Trend Height
m
Period
s
Dir
17/11:30pm 24.2 WNW 8 9 1015.7 - 0.0 - - - - - - -
17/11:00pm 24.3 W 7 11 1015.5 - 0.0 - - - - - - -
17/10:30pm 24.2 WNW 8 10 1015.5 - 0.0 - - - - - - -
17/10:00pm 24.1 WNW 7 9 1015.4 - 0.0 - - - - - - -
17/09:30pm 23.2 NNW 5 7 1015.1 - 0.0 - - - - - - -
17/09:00pm 22.8 N 4 5 1014.7 - 0.0 - - - - - - -
17/08:30pm 23.3 N 4 5 1014.5 - 0.0 - - - - - - -
17/08:00pm 23.8 NNE 6 8 1014.3 - 0.0 - - - - - - -
17/07:30pm 24.2 NNE 6 8 1014.0 - 0.0 - - - - - - -
17/07:00pm 25.3 NE 7 9 1013.6 - 0.0 - - - - - - -
17/06:30pm 26.3 NNE 7 10 1013.4 - 0.0 - - - - - - -
17/06:00pm 27.0 NNE 9 13 1013.1 - 0.0 - - - - - - -
17/05:30pm 27.5 N 9 12 1013.1 - 0.0 - - - - - - -
17/05:00pm 28.4 N 10 14 1013.0 - 0.0 - - - - - - -
17/04:30pm 28.4 N 12 15 1013.2 - 0.0 - - - - - - -
17/04:00pm 28.4 N 12 15 1013.1 - 0.0 - - - - - - -
17/03:30pm 29.2 N 11 15 1013.1 - 0.0 - - - - - - -
17/03:00pm 29.5 N 13 19 1013.4 - 0.0 - - - - - - -
17/02:30pm 29.2 N 13 18 1013.7 - 0.0 - - - - - - -
17/02:00pm 29.3 N 14 19 1014.0 - 0.0 - - - - - - -
17/01:30pm 28.0 N 12 15 1014.4 - 0.0 - - - - - - -
17/01:00pm 28.3 N 13 17 1014.7 - 0.0 - - - - - - -
17/12:30pm 29.5 N 13 17 1015.0 - 0.0 - - - - - - -
17/12:00pm 30.4 NNW 8 12 1015.4 - 0.0 - - - - - - -
17/11:30am 30.8 NNE 8 13 1015.8 - 0.0 - - - - - - -
17/11:00am 30.5 NNE 7 9 1016.1 - 0.0 - - - - - - -
17/10:30am 31.0 ESE 9 11 1016.3 - 0.0 - - - - - - -
17/10:00am 30.4 ESE 9 13 1016.4 - 0.0 - - - - - - -
17/09:30am 30.0 E 11 15 1016.6 - 0.0 - - - - - - -
17/09:00am 26.9 SSE 6 10 1016.2 - 0.0 - - - - - - -
17/08:47am 26.2 E 15 24 1016.6 - 0.0 - - - - - - -
17/08:30am 25.9 SSE 6 11 1015.9 - 0.0 - - - - - - -
17/08:00am 24.6 S 5 8 1015.4 - 0.0 - - - - - - -
17/07:30am 23.2 S 5 8 1014.9 - 0.0 - - - - - - -
17/07:00am 23.0 SSW 5 9 1014.4 - 0.0 - - - - - - -
17/06:30am 23.4 SW 6 11 1014.2 - 0.0 - - - - - - -
17/06:00am 23.3 W 7 10 1013.7 - 0.0 - - - - - - -
17/05:30am 23.2 WSW 7 10 1013.3 - 0.0 - - - - - - -
17/05:00am 23.3 WSW 7 9 1013.1 - 0.0 - - - - - - -
17/04:30am 23.3 WSW 7 10 1012.8 - 0.0 - - - - - - -
17/04:00am 23.4 WSW 7 10 1012.9 - 0.0 - - - - - - -
17/03:30am 23.6 W 8 10 1012.9 - 0.0 - - - - - - -
17/03:00am 23.6 W 9 12 1013.2 - 0.0 - - - - - - -
17/02:30am 23.6 W 9 11 1013.5 - 0.0 - - - - - - -
17/02:00am 23.7 W 8 11 1013.6 - 0.0 - - - - - - -
17/01:30am 23.7 W 7 11 1013.8 - 0.0 - - - - - - -
17/01:00am 23.7 W 8 11 1014.0 - 0.0 - - - - - - -
17/12:30am 23.8 W 9 11 1014.2 - 0.0 - - - - - - -
17/12:00am 23.8 WNW 8 9 1014.1 - 0.0 - - - - - - -
 
Date/Time
EST
Temp

°C
Wind Pressure Rain
since 9am
mm
Weather Cloud Vis
km
Sea
Height
m
Swell
Dir
 
Speed
knots
Gust
knots
hPa Trend Height
m
Period
s
Dir
16/11:30pm 23.7 WNW 8 9 1014.0 - 0.0 - - - - - - -
16/11:00pm 23.8 WNW 8 10 1014.0 - 0.0 - - - - - - -
16/10:30pm 23.9 NNW 8 9 1013.9 - 0.0 - - - - - - -
16/10:00pm 24.0 NNW 8 9 1013.9 - 0.0 - - - - - - -
16/09:30pm 23.9 NNW 7 9 1013.8 - 0.0 - - - - - - -
16/09:00pm 24.0 NNW 8 10 1013.6 - 0.0 - - - - - - -
16/08:30pm 24.2 NNW 8 10 1013.5 - 0.0 - - - - - - -
16/08:00pm 24.3 N 8 11 1013.3 - 0.0 - - - - - - -
16/07:30pm 24.4 N 8 11 1012.9 - 0.0 - - - - - - -
16/07:00pm 24.6 N 9 12 1012.6 - 0.0 - - - - - - -
16/06:30pm 25.1 NNW 9 12 1012.3 - 0.0 - - - - - - -
16/06:00pm 25.7 NNW 10 13 1012.1 - 0.0 - - - - - - -
16/05:30pm 26.2 N 11 14 1011.8 - 0.0 - - - - - - -
16/05:00pm 27.4 N 9 11 1011.7 - 0.0 - - - - - - -
16/04:30pm 27.8 N 9 11 1011.8 - 0.0 - - - - - - -
16/04:00pm 27.7 NNW 10 13 1012.2 - 0.0 - - - - - - -

Other Formats:

Comma delimited format used in spreadsheet applications
http://www.bom.gov.au/fwo/IDQ60701/IDQ60701.94254.axf

JavaScript Object Notation format (JSON) in row-major order
http://www.bom.gov.au/fwo/IDQ60701/IDQ60701.94254.json